sensor_id;sensor_type;location;lat;lon;timestamp;pressure;altitude;pressure_sealevel;temperature;humidity
77975;BME280;67164;51.202;0.278;2023-04-24T00:00:00;100211.22;;;21.97;41.75
77975;BME280;67164;51.202;0.278;2023-04-24T00:02:26;100217.92;;;21.69;41.80
77975;BME280;67164;51.202;0.278;2023-04-24T00:04:51;100220.82;;;21.73;41.71
77975;BME280;67164;51.202;0.278;2023-04-24T00:07:17;100222.57;;;21.74;41.68
77975;BME280;67164;51.202;0.278;2023-04-24T00:09:43;100222.36;;;21.67;41.78
77975;BME280;67164;51.202;0.278;2023-04-24T00:12:09;100221.68;;;21.58;41.90
77975;BME280;67164;51.202;0.278;2023-04-24T00:14:34;100228.02;;;21.57;41.86
77975;BME280;67164;51.202;0.278;2023-04-24T00:17:00;100227.34;;;21.49;41.98
77975;BME280;67164;51.202;0.278;2023-04-24T00:19:26;100227.98;;;21.51;41.90
77975;BME280;67164;51.202;0.278;2023-04-24T00:21:51;100232.01;;;21.45;41.99
77975;BME280;67164;51.202;0.278;2023-04-24T00:24:18;100228.91;;;21.71;41.92
77975;BME280;67164;51.202;0.278;2023-04-24T00:26:43;100233.69;;;21.47;41.94
77975;BME280;67164;51.202;0.278;2023-04-24T00:29:09;100238.52;;;21.51;41.82
77975;BME280;67164;51.202;0.278;2023-04-24T00:31:35;100245.64;;;21.57;41.74
77975;BME280;67164;51.202;0.278;2023-04-24T00:34:01;100248.80;;;21.61;41.67
77975;BME280;67164;51.202;0.278;2023-04-24T00:36:26;100248.38;;;21.52;41.78
77975;BME280;67164;51.202;0.278;2023-04-24T00:38:51;100252.27;;;21.46;41.83
77975;BME280;67164;51.202;0.278;2023-04-24T00:41:16;100255.73;;;21.73;41.73
77975;BME280;67164;51.202;0.278;2023-04-24T00:43:42;100255.79;;;21.60;41.56
77975;BME280;67164;51.202;0.278;2023-04-24T00:46:08;100258.41;;;21.54;41.68
77975;BME280;67164;51.202;0.278;2023-04-24T00:48:33;100261.58;;;21.78;41.62
77975;BME280;67164;51.202;0.278;2023-04-24T00:50:58;100263.48;;;21.56;41.56
77975;BME280;67164;51.202;0.278;2023-04-24T00:53:24;100263.17;;;21.28;41.60
77975;BME280;67164;51.202;0.278;2023-04-24T00:55:50;100265.73;;;22.01;41.58
77975;BME280;67164;51.202;0.278;2023-04-24T00:58:16;100269.50;;;21.64;41.71
77975;BME280;67164;51.202;0.278;2023-04-24T01:00:43;100273.54;;;21.68;41.65
77975;BME280;67164;51.202;0.278;2023-04-24T01:03:08;100270.18;;;21.36;41.76
77975;BME280;67164;51.202;0.278;2023-04-24T01:05:33;100271.31;;;21.31;41.80
77975;BME280;67164;51.202;0.278;2023-04-24T01:07:59;100275.77;;;21.50;41.87
77975;BME280;67164;51.202;0.278;2023-04-24T01:10:26;100283.77;;;21.45;41.94
77975;BME280;67164;51.202;0.278;2023-04-24T01:12:50;100286.95;;;21.24;41.85
77975;BME280;67164;51.202;0.278;2023-04-24T01:15:16;100291.68;;;21.24;41.76
77975;BME280;67164;51.202;0.278;2023-04-24T01:17:42;100298.11;;;21.12;41.65
77975;BME280;67164;51.202;0.278;2023-04-24T01:20:08;100296.75;;;21.35;41.61
77975;BME280;67164;51.202;0.278;2023-04-24T01:22:33;100296.78;;;21.31;41.67
77975;BME280;67164;51.202;0.278;2023-04-24T01:24:58;100297.72;;;21.58;41.57
77975;BME280;67164;51.202;0.278;2023-04-24T01:27:24;100298.77;;;21.29;41.65
77975;BME280;67164;51.202;0.278;2023-04-24T01:29:49;100290.74;;;21.26;41.69
77975;BME280;67164;51.202;0.278;2023-04-24T01:32:15;100289.62;;;21.29;41.55
77975;BME280;67164;51.202;0.278;2023-04-24T01:34:45;100291.57;;;21.01;41.62
77975;BME280;67164;51.202;0.278;2023-04-24T01:37:06;100293.23;;;21.53;41.53
77975;BME280;67164;51.202;0.278;2023-04-24T01:39:32;100295.85;;;21.50;41.54
77975;BME280;67164;51.202;0.278;2023-04-24T01:41:57;100297.36;;;21.49;41.46
77975;BME280;67164;51.202;0.278;2023-04-24T01:44:23;100296.01;;;21.21;41.50
77975;BME280;67164;51.202;0.278;2023-04-24T01:46:48;100294.70;;;21.19;41.54
77975;BME280;67164;51.202;0.278;2023-04-24T01:49:14;100292.44;;;21.37;41.66
77975;BME280;67164;51.202;0.278;2023-04-24T01:51:39;100294.81;;;21.12;41.63
77975;BME280;67164;51.202;0.278;2023-04-24T01:54:05;100295.48;;;21.16;41.56
77975;BME280;67164;51.202;0.278;2023-04-24T01:56:33;100297.21;;;21.38;41.56
77975;BME280;67164;51.202;0.278;2023-04-24T01:58:57;100304.65;;;21.42;41.50
77975;BME280;67164;51.202;0.278;2023-04-24T02:01:24;100315.73;;;21.22;41.44
77975;BME280;67164;51.202;0.278;2023-04-24T02:03:47;100321.41;;;21.40;41.42
77975;BME280;67164;51.202;0.278;2023-04-24T02:06:13;100324.27;;;21.13;41.50
77975;BME280;67164;51.202;0.278;2023-04-24T02:08:39;100327.42;;;21.65;41.46
77975;BME280;67164;51.202;0.278;2023-04-24T02:11:04;100330.01;;;21.15;41.42
77975;BME280;67164;51.202;0.278;2023-04-24T02:13:30;100331.20;;;21.33;41.46
77975;BME280;67164;51.202;0.278;2023-04-24T02:15:56;100331.62;;;21.26;41.53
77975;BME280;67164;51.202;0.278;2023-04-24T02:18:21;100331.77;;;21.02;41.60
77975;BME280;67164;51.202;0.278;2023-04-24T02:20:47;100332.10;;;21.18;41.61
77975;BME280;67164;51.202;0.278;2023-04-24T02:23:12;100333.38;;;20.91;41.69
77975;BME280;67164;51.202;0.278;2023-04-24T02:25:38;100336.21;;;21.09;41.80
77975;BME280;67164;51.202;0.278;2023-04-24T02:28:03;100333.45;;;21.02;41.78
77975;BME280;67164;51.202;0.278;2023-04-24T02:30:29;100330.84;;;21.01;41.82
77975;BME280;67164;51.202;0.278;2023-04-24T02:32:55;100326.86;;;21.14;41.98
77975;BME280;67164;51.202;0.278;2023-04-24T02:35:20;100332.48;;;20.84;42.03
77975;BME280;67164;51.202;0.278;2023-04-24T02:37:46;100330.33;;;21.01;42.18
77975;BME280;67164;51.202;0.278;2023-04-24T02:40:12;100333.35;;;20.95;42.25
77975;BME280;67164;51.202;0.278;2023-04-24T02:42:37;100337.99;;;20.72;42.23
77975;BME280;67164;51.202;0.278;2023-04-24T02:45:04;100343.30;;;20.93;42.25
77975;BME280;67164;51.202;0.278;2023-04-24T02:47:29;100347.38;;;20.90;42.32
77975;BME280;67164;51.202;0.278;2023-04-24T02:49:55;100348.25;;;20.95;42.30
77975;BME280;67164;51.202;0.278;2023-04-24T02:52:20;100349.49;;;20.75;42.12
77975;BME280;67164;51.202;0.278;2023-04-24T02:54:46;100351.16;;;20.81;41.95
77975;BME280;67164;51.202;0.278;2023-04-24T02:57:11;100353.45;;;21.15;41.98
77975;BME280;67164;51.202;0.278;2023-04-24T02:59:37;100359.44;;;20.79;42.05
77975;BME280;67164;51.202;0.278;2023-04-24T03:02:04;100364.10;;;20.89;41.94
77975;BME280;67164;51.202;0.278;2023-04-24T03:04:31;100366.39;;;21.07;42.02
77975;BME280;67164;51.202;0.278;2023-04-24T03:06:55;100365.57;;;20.75;42.15
77975;BME280;67164;51.202;0.278;2023-04-24T03:09:19;100366.64;;;21.02;42.14
77975;BME280;67164;51.202;0.278;2023-04-24T03:11:44;100368.18;;;20.69;41.87
77975;BME280;67164;51.202;0.278;2023-04-24T03:14:10;100368.27;;;21.11;42.00
77975;BME280;67164;51.202;0.278;2023-04-24T03:16:35;100377.11;;;20.75;41.99
77975;BME280;67164;51.202;0.278;2023-04-24T03:19:01;100377.22;;;20.97;41.86
77975;BME280;67164;51.202;0.278;2023-04-24T03:21:27;100380.67;;;21.01;41.91
77975;BME280;67164;51.202;0.278;2023-04-24T03:23:52;100383.33;;;21.01;41.85
77975;BME280;67164;51.202;0.278;2023-04-24T03:26:18;100384.52;;;20.78;41.89
77975;BME280;67164;51.202;0.278;2023-04-24T03:28:43;100385.46;;;20.98;41.67
77975;BME280;67164;51.202;0.278;2023-04-24T03:31:09;100383.90;;;20.94;41.84
77975;BME280;67164;51.202;0.278;2023-04-24T03:33:34;100381.68;;;20.66;41.84
77975;BME280;67164;51.202;0.278;2023-04-24T03:36:00;100382.01;;;20.91;42.01
77975;BME280;67164;51.202;0.278;2023-04-24T03:38:26;100384.53;;;20.91;41.94
77975;BME280;67164;51.202;0.278;2023-04-24T03:40:51;100387.55;;;20.94;41.79
77975;BME280;67164;51.202;0.278;2023-04-24T03:43:17;100392.41;;;20.91;41.87
77975;BME280;67164;51.202;0.278;2023-04-24T03:45:42;100395.61;;;20.92;41.79
77975;BME280;67164;51.202;0.278;2023-04-24T03:48:07;100402.00;;;20.90;41.90
77975;BME280;67164;51.202;0.278;2023-04-24T03:50:33;100399.53;;;20.75;42.04
77975;BME280;67164;51.202;0.278;2023-04-24T03:52:59;100404.15;;;20.72;42.24
77975;BME280;67164;51.202;0.278;2023-04-24T03:55:25;100402.11;;;20.38;42.19
77975;BME280;67164;51.202;0.278;2023-04-24T03:57:50;100407.44;;;20.66;42.31
77975;BME280;67164;51.202;0.278;2023-04-24T04:00:16;100412.03;;;20.32;42.30
77975;BME280;67164;51.202;0.278;2023-04-24T04:02:42;100414.26;;;20.57;42.33
77975;BME280;67164;51.202;0.278;2023-04-24T04:05:08;100418.93;;;20.56;42.49
77975;BME280;67164;51.202;0.278;2023-04-24T04:07:33;100426.30;;;20.52;42.47
77975;BME280;67164;51.202;0.278;2023-04-24T04:09:58;100431.92;;;20.48;42.56
77975;BME280;67164;51.202;0.278;2023-04-24T04:12:23;100435.14;;;20.39;42.77
77975;BME280;67164;51.202;0.278;2023-04-24T04:14:49;100438.21;;;20.68;42.44
77975;BME280;67164;51.202;0.278;2023-04-24T04:17:14;100440.31;;;20.38;42.79
77975;BME280;67164;51.202;0.278;2023-04-24T04:19:40;100443.93;;;20.37;42.53
77975;BME280;67164;51.202;0.278;2023-04-24T04:22:05;100445.06;;;20.39;42.38
77975;BME280;67164;51.202;0.278;2023-04-24T04:24:31;100445.79;;;20.35;42.50
77975;BME280;67164;51.202;0.278;2023-04-24T04:26:57;100443.54;;;20.35;42.44
77975;BME280;67164;51.202;0.278;2023-04-24T04:29:22;100445.35;;;20.41;42.24
77975;BME280;67164;51.202;0.278;2023-04-24T04:31:48;100447.11;;;20.62;42.43
77975;BME280;67164;51.202;0.278;2023-04-24T04:34:14;100452.05;;;20.33;42.53
77975;BME280;67164;51.202;0.278;2023-04-24T04:36:39;100458.58;;;20.29;42.78
77975;BME280;67164;51.202;0.278;2023-04-24T04:39:05;100464.14;;;20.28;42.90
77975;BME280;67164;51.202;0.278;2023-04-24T04:41:30;100471.05;;;20.26;42.83
77975;BME280;67164;51.202;0.278;2023-04-24T04:43:56;100473.29;;;20.04;42.69
77975;BME280;67164;51.202;0.278;2023-04-24T04:46:22;100479.18;;;20.25;42.86
77975;BME280;67164;51.202;0.278;2023-04-24T04:48:47;100476.90;;;20.29;42.70
77975;BME280;67164;51.202;0.278;2023-04-24T04:51:13;100478.56;;;20.28;42.86
77975;BME280;67164;51.202;0.278;2023-04-24T04:53:39;100479.34;;;20.17;42.88
77975;BME280;67164;51.202;0.278;2023-04-24T04:56:05;100477.32;;;20.17;42.60
77975;BME280;67164;51.202;0.278;2023-04-24T04:58:31;100479.08;;;20.20;42.94
77975;BME280;67164;51.202;0.278;2023-04-24T05:00:56;100491.01;;;20.21;43.11
77975;BME280;67164;51.202;0.278;2023-04-24T05:03:21;100500.91;;;20.16;42.78
77975;BME280;67164;51.202;0.278;2023-04-24T05:05:47;100507.35;;;20.18;42.91
77975;BME280;67164;51.202;0.278;2023-04-24T05:08:13;100513.74;;;20.15;42.75
77975;BME280;67164;51.202;0.278;2023-04-24T05:10:38;100514.01;;;20.13;42.76
77975;BME280;67164;51.202;0.278;2023-04-24T05:13:04;100514.82;;;20.18;43.13
77975;BME280;67164;51.202;0.278;2023-04-24T05:15:29;100516.50;;;20.11;43.06
77975;BME280;67164;51.202;0.278;2023-04-24T05:17:55;100523.59;;;20.17;42.83
77975;BME280;67164;51.202;0.278;2023-04-24T05:20:21;100524.78;;;20.19;42.67
77975;BME280;67164;51.202;0.278;2023-04-24T05:22:46;100521.86;;;20.25;42.77
77975;BME280;67164;51.202;0.278;2023-04-24T05:25:12;100530.93;;;20.04;42.76
77975;BME280;67164;51.202;0.278;2023-04-24T05:27:39;100532.30;;;20.50;42.66
77975;BME280;67164;51.202;0.278;2023-04-24T05:30:02;100531.20;;;20.30;42.64
77975;BME280;67164;51.202;0.278;2023-04-24T05:32:28;100536.86;;;20.37;42.38
77975;BME280;67164;51.202;0.278;2023-04-24T05:37:19;100546.09;;;20.11;42.48
77975;BME280;67164;51.202;0.278;2023-04-24T05:39:45;100547.42;;;20.31;42.40
77975;BME280;67164;51.202;0.278;2023-04-24T05:42:11;100546.96;;;20.25;41.90
77975;BME280;67164;51.202;0.278;2023-04-24T05:44:36;100545.16;;;20.54;41.98
77975;BME280;67164;51.202;0.278;2023-04-24T05:47:01;100552.67;;;20.38;41.95
77975;BME280;67164;51.202;0.278;2023-04-24T05:49:26;100550.67;;;20.38;42.01
77975;BME280;67164;51.202;0.278;2023-04-24T05:51:52;100552.33;;;20.41;41.91
77975;BME280;67164;51.202;0.278;2023-04-24T05:54:18;100551.61;;;20.36;41.76
77975;BME280;67164;51.202;0.278;2023-04-24T05:56:43;100551.23;;;20.53;41.86
77975;BME280;67164;51.202;0.278;2023-04-24T05:59:09;100551.60;;;20.31;41.69
77975;BME280;67164;51.202;0.278;2023-04-24T06:01:35;100556.80;;;20.33;41.91
77975;BME280;67164;51.202;0.278;2023-04-24T06:04:00;100562.14;;;20.78;41.80
77975;BME280;67164;51.202;0.278;2023-04-24T06:06:26;100570.72;;;20.31;41.99
77975;BME280;67164;51.202;0.278;2023-04-24T06:08:52;100573.85;;;20.31;41.88
77975;BME280;67164;51.202;0.278;2023-04-24T06:11:17;100575.47;;;20.30;41.77
77975;BME280;67164;51.202;0.278;2023-04-24T06:13:44;100577.25;;;20.32;41.72
77975;BME280;67164;51.202;0.278;2023-04-24T06:16:09;100578.33;;;20.31;41.89
77975;BME280;67164;51.202;0.278;2023-04-24T06:18:35;100580.36;;;20.25;42.00
77975;BME280;67164;51.202;0.278;2023-04-24T06:21:00;100578.94;;;20.29;41.77
77975;BME280;67164;51.202;0.278;2023-04-24T06:23:26;100579.45;;;20.50;41.97
77975;BME280;67164;51.202;0.278;2023-04-24T06:25:52;100580.11;;;20.29;41.93
77975;BME280;67164;51.202;0.278;2023-04-24T06:28:17;100580.82;;;20.30;42.05
77975;BME280;67164;51.202;0.278;2023-04-24T06:30:44;100584.08;;;20.53;41.79
77975;BME280;67164;51.202;0.278;2023-04-24T06:33:09;100585.44;;;20.79;41.90
77975;BME280;67164;51.202;0.278;2023-04-24T06:35:35;100591.05;;;20.22;41.88
77975;BME280;67164;51.202;0.278;2023-04-24T06:38:00;100594.05;;;20.62;42.02
77975;BME280;67164;51.202;0.278;2023-04-24T06:40:25;100596.66;;;20.38;42.45
77975;BME280;67164;51.202;0.278;2023-04-24T06:42:51;100597.30;;;20.25;42.59
77975;BME280;67164;51.202;0.278;2023-04-24T06:45:18;100602.23;;;20.05;42.79
77975;BME280;67164;51.202;0.278;2023-04-24T06:47:42;100600.12;;;20.09;42.80
77975;BME280;67164;51.202;0.278;2023-04-24T06:50:09;100603.00;;;20.00;42.76
77975;BME280;67164;51.202;0.278;2023-04-24T06:52:33;100602.52;;;20.00;42.84
77975;BME280;67164;51.202;0.278;2023-04-24T06:55:00;100606.53;;;19.88;43.13
77975;BME280;67164;51.202;0.278;2023-04-24T06:57:25;100606.80;;;20.06;43.00
77975;BME280;67164;51.202;0.278;2023-04-24T06:59:50;100605.88;;;20.22;43.40
77975;BME280;67164;51.202;0.278;2023-04-24T07:02:16;100606.29;;;19.73;43.40
77975;BME280;67164;51.202;0.278;2023-04-24T07:04:42;100603.77;;;19.94;43.34
77975;BME280;67164;51.202;0.278;2023-04-24T07:07:07;100600.86;;;20.16;43.45
77975;BME280;67164;51.202;0.278;2023-04-24T07:09:33;100596.90;;;19.92;43.43
77975;BME280;67164;51.202;0.278;2023-04-24T07:11:59;100595.69;;;20.16;43.28
77975;BME280;67164;51.202;0.278;2023-04-24T07:14:25;100594.82;;;19.97;43.22
77975;BME280;67164;51.202;0.278;2023-04-24T07:16:50;100599.09;;;20.21;43.31
77975;BME280;67164;51.202;0.278;2023-04-24T07:19:16;100599.94;;;20.19;43.04
77975;BME280;67164;51.202;0.278;2023-04-24T07:21:41;100599.88;;;19.67;42.94
77975;BME280;67164;51.202;0.278;2023-04-24T07:24:07;100602.26;;;19.74;42.85
77975;BME280;67164;51.202;0.278;2023-04-24T07:26:32;100605.38;;;20.18;43.18
77975;BME280;67164;51.202;0.278;2023-04-24T07:28:58;100605.80;;;19.96;42.99
77975;BME280;67164;51.202;0.278;2023-04-24T07:31:24;100604.58;;;20.20;43.15
77975;BME280;67164;51.202;0.278;2023-04-24T07:33:54;100602.73;;;20.10;43.49
77975;BME280;67164;51.202;0.278;2023-04-24T07:36:16;100600.97;;;20.36;42.49
77975;BME280;67164;51.202;0.278;2023-04-24T07:38:42;100604.79;;;20.25;42.55
77975;BME280;67164;51.202;0.278;2023-04-24T07:41:08;100603.52;;;20.37;42.43
77975;BME280;67164;51.202;0.278;2023-04-24T07:43:33;100600.66;;;20.72;42.45
77975;BME280;67164;51.202;0.278;2023-04-24T07:45:59;100598.93;;;20.54;42.47
77975;BME280;67164;51.202;0.278;2023-04-24T07:48:25;100601.06;;;20.33;42.65
77975;BME280;67164;51.202;0.278;2023-04-24T07:50:51;100608.74;;;20.68;42.57
77975;BME280;67164;51.202;0.278;2023-04-24T07:53:16;100613.85;;;20.45;42.38
77975;BME280;67164;51.202;0.278;2023-04-24T07:55:42;100615.22;;;20.44;42.41
77975;BME280;67164;51.202;0.278;2023-04-24T07:58:07;100620.74;;;20.40;42.51
77975;BME280;67164;51.202;0.278;2023-04-24T08:00:33;100625.10;;;20.38;43.03
77975;BME280;67164;51.202;0.278;2023-04-24T08:02:59;100626.57;;;20.71;42.96
77975;BME280;67164;51.202;0.278;2023-04-24T08:05:24;100630.79;;;20.40;42.89
77975;BME280;67164;51.202;0.278;2023-04-24T08:07:50;100626.62;;;20.43;42.81
77975;BME280;67164;51.202;0.278;2023-04-24T08:10:16;100632.97;;;20.65;42.86
77975;BME280;67164;51.202;0.278;2023-04-24T08:12:42;100632.94;;;20.39;42.74
77975;BME280;67164;51.202;0.278;2023-04-24T08:15:09;100633.35;;;20.21;43.78
77975;BME280;67164;51.202;0.278;2023-04-24T08:17:34;100639.76;;;19.66;44.55
77975;BME280;67164;51.202;0.278;2023-04-24T08:19:59;100644.78;;;19.57;44.95
77975;BME280;67164;51.202;0.278;2023-04-24T08:22:25;100648.59;;;19.46;45.50
77975;BME280;67164;51.202;0.278;2023-04-24T08:24:51;100650.49;;;19.26;45.83
77975;BME280;67164;51.202;0.278;2023-04-24T08:27:16;100650.49;;;19.55;45.61
77975;BME280;67164;51.202;0.278;2023-04-24T08:29:42;100649.91;;;19.57;45.79
77975;BME280;67164;51.202;0.278;2023-04-24T08:32:08;100649.16;;;19.63;45.86
77975;BME280;67164;51.202;0.278;2023-04-24T08:34:34;100642.31;;;19.62;46.04
77975;BME280;67164;51.202;0.278;2023-04-24T08:37:00;100638.87;;;19.48;46.03
77975;BME280;67164;51.202;0.278;2023-04-24T08:39:25;100636.89;;;19.67;46.29
77975;BME280;67164;51.202;0.278;2023-04-24T08:41:52;100639.81;;;19.80;46.21
77975;BME280;67164;51.202;0.278;2023-04-24T08:44:17;100643.78;;;19.93;46.06
77975;BME280;67164;51.202;0.278;2023-04-24T08:46:43;100645.26;;;20.01;45.87
77975;BME280;67164;51.202;0.278;2023-04-24T08:49:09;100644.20;;;20.08;45.47
77975;BME280;67164;51.202;0.278;2023-04-24T08:51:37;100646.42;;;19.95;45.52
77975;BME280;67164;51.202;0.278;2023-04-24T08:54:00;100647.38;;;19.90;45.69
77975;BME280;67164;51.202;0.278;2023-04-24T08:56:26;100650.65;;;19.90;45.84
77975;BME280;67164;51.202;0.278;2023-04-24T08:58:53;100650.23;;;19.84;46.02
77975;BME280;67164;51.202;0.278;2023-04-24T09:01:17;100650.83;;;19.90;46.07
77975;BME280;67164;51.202;0.278;2023-04-24T09:03:42;100652.74;;;20.01;46.08
77975;BME280;67164;51.202;0.278;2023-04-24T09:06:08;100648.93;;;19.96;46.57
77975;BME280;67164;51.202;0.278;2023-04-24T09:08:34;100651.55;;;20.02;46.64
77975;BME280;67164;51.202;0.278;2023-04-24T09:10:59;100651.96;;;20.05;46.64
77975;BME280;67164;51.202;0.278;2023-04-24T09:13:24;100650.88;;;20.13;46.56
77975;BME280;67164;51.202;0.278;2023-04-24T09:15:50;100648.13;;;20.13;46.69
77975;BME280;67164;51.202;0.278;2023-04-24T09:18:16;100650.56;;;20.16;46.66
77975;BME280;67164;51.202;0.278;2023-04-24T09:23:06;100657.98;;;19.81;47.11
77975;BME280;67164;51.202;0.278;2023-04-24T09:25:33;100658.08;;;19.76;47.33
77975;BME280;67164;51.202;0.278;2023-04-24T09:28:01;100657.57;;;19.92;47.16
77975;BME280;67164;51.202;0.278;2023-04-24T09:30:23;100659.56;;;19.93;47.12
77975;BME280;67164;51.202;0.278;2023-04-24T09:32:49;100659.22;;;20.29;46.98
77975;BME280;67164;51.202;0.278;2023-04-24T09:35:15;100663.78;;;20.28;47.00
77975;BME280;67164;51.202;0.278;2023-04-24T09:37:42;100662.49;;;20.32;47.03
77975;BME280;67164;51.202;0.278;2023-04-24T09:40:14;100662.01;;;20.48;46.85
77975;BME280;67164;51.202;0.278;2023-04-24T09:42:32;100662.07;;;20.15;47.03
77975;BME280;67164;51.202;0.278;2023-04-24T09:44:58;100661.86;;;20.45;46.94
77975;BME280;67164;51.202;0.278;2023-04-24T09:47:23;100671.76;;;20.33;46.83
77975;BME280;67164;51.202;0.278;2023-04-24T09:49:49;100677.59;;;20.33;46.81
77975;BME280;67164;51.202;0.278;2023-04-24T09:52:15;100682.43;;;20.41;46.64
77975;BME280;67164;51.202;0.278;2023-04-24T09:54:40;100681.04;;;19.96;47.03
77975;BME280;67164;51.202;0.278;2023-04-24T09:57:08;100680.36;;;20.88;46.03
77975;BME280;67164;51.202;0.278;2023-04-24T09:59:32;100680.87;;;20.73;46.32
77975;BME280;67164;51.202;0.278;2023-04-24T10:01:58;100687.66;;;20.70;46.71
77975;BME280;67164;51.202;0.278;2023-04-24T10:04:25;100691.77;;;20.82;46.31
77975;BME280;67164;51.202;0.278;2023-04-24T10:06:50;100698.05;;;20.22;46.92
77975;BME280;67164;51.202;0.278;2023-04-24T10:09:15;100700.28;;;20.61;46.80
77975;BME280;67164;51.202;0.278;2023-04-24T10:11:43;100704.10;;;20.51;46.95
77975;BME280;67164;51.202;0.278;2023-04-24T10:14:07;100709.02;;;20.64;46.73
77975;BME280;67164;51.202;0.278;2023-04-24T10:16:32;100709.86;;;20.39;46.71
77975;BME280;67164;51.202;0.278;2023-04-24T10:18:59;100709.13;;;20.38;46.76
77975;BME280;67164;51.202;0.278;2023-04-24T10:21:23;100705.89;;;20.31;46.96
77975;BME280;67164;51.202;0.278;2023-04-24T10:23:49;100709.36;;;20.60;46.92
77975;BME280;67164;51.202;0.278;2023-04-24T10:26:14;100708.48;;;20.46;46.84
77975;BME280;67164;51.202;0.278;2023-04-24T10:28:40;100709.77;;;20.31;47.17
77975;BME280;67164;51.202;0.278;2023-04-24T10:31:06;100715.48;;;20.41;47.06
77975;BME280;67164;51.202;0.278;2023-04-24T10:33:31;100716.96;;;20.50;47.00
77975;BME280;67164;51.202;0.278;2023-04-24T10:35:57;100719.20;;;20.93;47.08
77975;BME280;67164;51.202;0.278;2023-04-24T10:38:24;100715.85;;;20.47;47.05
77975;BME280;67164;51.202;0.278;2023-04-24T10:40:47;100719.16;;;20.68;47.08
77975;BME280;67164;51.202;0.278;2023-04-24T10:43:17;100717.20;;;20.74;46.95
77975;BME280;67164;51.202;0.278;2023-04-24T10:45:39;100720.01;;;20.83;46.79
77975;BME280;67164;51.202;0.278;2023-04-24T10:48:06;100720.14;;;20.87;46.76
77975;BME280;67164;51.202;0.278;2023-04-24T10:50:45;100718.69;;;20.65;46.74
77975;BME280;67164;51.202;0.278;2023-04-24T10:53:05;100717.35;;;20.57;46.82
77975;BME280;67164;51.202;0.278;2023-04-24T10:55:40;100718.50;;;20.71;46.64
77975;BME280;67164;51.202;0.278;2023-04-24T10:58:02;100717.91;;;20.76;46.50
77975;BME280;67164;51.202;0.278;2023-04-24T11:00:15;100715.61;;;20.73;46.56
77975;BME280;67164;51.202;0.278;2023-04-24T11:02:39;100717.24;;;20.74;46.52
77975;BME280;67164;51.202;0.278;2023-04-24T11:05:04;100718.76;;;20.95;46.19
77975;BME280;67164;51.202;0.278;2023-04-24T11:07:29;100715.09;;;20.88;45.97
77975;BME280;67164;51.202;0.278;2023-04-24T11:09:58;100713.21;;;21.15;45.86
77975;BME280;67164;51.202;0.278;2023-04-24T11:12:21;100715.85;;;20.90;45.80
77975;BME280;67164;51.202;0.278;2023-04-24T11:15:00;100717.58;;;21.11;45.47
77975;BME280;67164;51.202;0.278;2023-04-24T11:19:39;100716.78;;;21.12;45.68
77975;BME280;67164;51.202;0.278;2023-04-24T11:22:06;100720.70;;;21.53;45.48
77975;BME280;67164;51.202;0.278;2023-04-24T11:24:31;100724.34;;;21.34;45.44
77975;BME280;67164;51.202;0.278;2023-04-24T11:26:57;100723.24;;;21.45;45.30
77975;BME280;67164;51.202;0.278;2023-04-24T11:29:21;100722.39;;;21.69;45.28
77975;BME280;67164;51.202;0.278;2023-04-24T11:31:46;100719.67;;;21.16;45.35
77975;BME280;67164;51.202;0.278;2023-04-24T11:34:13;100722.67;;;21.09;45.45
77975;BME280;67164;51.202;0.278;2023-04-24T11:36:38;100719.58;;;21.85;45.17
77975;BME280;67164;51.202;0.278;2023-04-24T11:39:04;100715.65;;;22.33;44.65
77975;BME280;67164;51.202;0.278;2023-04-24T11:41:29;100719.96;;;22.30;45.00
77975;BME280;67164;51.202;0.278;2023-04-24T11:43:55;100716.56;;;21.85;45.03
77975;BME280;67164;51.202;0.278;2023-04-24T11:46:21;100720.38;;;21.83;44.85
77975;BME280;67164;51.202;0.278;2023-04-24T11:48:46;100721.96;;;21.68;45.18
77975;BME280;67164;51.202;0.278;2023-04-24T11:51:12;100723.08;;;21.63;45.47
77975;BME280;67164;51.202;0.278;2023-04-24T11:53:37;100722.52;;;21.25;45.53
77975;BME280;67164;51.202;0.278;2023-04-24T11:56:03;100720.22;;;21.48;45.39
77975;BME280;67164;51.202;0.278;2023-04-24T11:58:34;100716.38;;;21.61;45.00
77975;BME280;67164;51.202;0.278;2023-04-24T12:00:57;100716.01;;;21.32;44.89
77975;BME280;67164;51.202;0.278;2023-04-24T12:03:20;100712.65;;;21.32;44.72
77975;BME280;67164;51.202;0.278;2023-04-24T12:05:46;100709.36;;;21.78;44.56
77975;BME280;67164;51.202;0.278;2023-04-24T12:08:11;100709.36;;;21.40;44.58
77975;BME280;67164;51.202;0.278;2023-04-24T12:10:37;100708.67;;;21.63;44.51
77975;BME280;67164;51.202;0.278;2023-04-24T12:13:03;100707.36;;;21.49;44.23
77975;BME280;67164;51.202;0.278;2023-04-24T12:15:29;100702.18;;;21.46;44.21
77975;BME280;67164;51.202;0.278;2023-04-24T12:17:56;100706.51;;;21.65;44.24
77975;BME280;67164;51.202;0.278;2023-04-24T12:20:25;100706.07;;;21.67;44.12
77975;BME280;67164;51.202;0.278;2023-04-24T12:22:51;100711.26;;;21.25;43.96
77975;BME280;67164;51.202;0.278;2023-04-24T12:25:13;100713.21;;;21.36;43.68
77975;BME280;67164;51.202;0.278;2023-04-24T12:27:38;100715.51;;;21.78;43.69
77975;BME280;67164;51.202;0.278;2023-04-24T12:30:09;100715.59;;;21.97;43.36
77975;BME280;67164;51.202;0.278;2023-04-24T12:32:30;100714.41;;;22.09;42.97
77975;BME280;67164;51.202;0.278;2023-04-24T12:34:56;100713.83;;;22.11;42.77
77975;BME280;67164;51.202;0.278;2023-04-24T12:37:23;100714.20;;;22.18;42.61
77975;BME280;67164;51.202;0.278;2023-04-24T12:39:58;100710.89;;;22.32;42.41
77975;BME280;67164;51.202;0.278;2023-04-24T12:42:13;100706.91;;;22.39;42.17
77975;BME280;67164;51.202;0.278;2023-04-24T12:44:39;100707.92;;;22.31;42.35
77975;BME280;67164;51.202;0.278;2023-04-24T12:47:04;100709.16;;;22.56;42.27